createdAt,value
2024-01-25T00:01:55.871Z,101695.06
2024-01-25T00:04:22.997Z,101700.28
2024-01-25T00:06:49.909Z,101691.50
2024-01-25T00:09:16.630Z,101681.09
2024-01-25T00:11:43.924Z,101679.28
2024-01-25T00:14:10.500Z,101676.59
2024-01-25T00:16:37.674Z,101669.69
2024-01-25T00:19:04.305Z,101677.44
2024-01-25T00:21:30.943Z,101677.53
2024-01-25T00:23:57.589Z,101687.94
2024-01-25T00:26:24.122Z,101673.03
2024-01-25T00:28:50.678Z,101689.50
2024-01-25T00:31:17.387Z,101685.28
2024-01-25T00:33:44.085Z,101685.19
2024-01-25T00:36:11.190Z,101698.34
2024-01-25T00:38:37.872Z,101694.03
2024-01-25T00:41:04.437Z,101688.75
2024-01-25T00:43:31.172Z,101687.03
2024-01-25T00:45:57.955Z,101689.78
2024-01-25T00:48:24.783Z,101683.56
2024-01-25T00:50:51.456Z,101680.13
2024-01-25T00:53:18.097Z,101684.38
2024-01-25T00:55:44.782Z,101683.53
2024-01-25T00:58:11.560Z,101687.03
2024-01-25T01:00:38.425Z,101693.19
2024-01-25T01:03:06.339Z,101679.84
2024-01-25T01:05:33.166Z,101685.97
2024-01-25T01:08:00.073Z,101691.03
2024-01-25T01:10:26.903Z,101696.28
2024-01-25T01:12:55.390Z,101692.84
2024-01-25T01:15:22.030Z,101682.28
2024-01-25T01:17:48.798Z,101690.09
2024-01-25T01:20:15.698Z,101678.78
2024-01-25T01:22:42.407Z,101687.63
2024-01-25T01:25:09.067Z,101683.25
2024-01-25T01:27:35.763Z,101681.38
2024-01-25T01:30:02.375Z,101685.59
2024-01-25T01:32:29.064Z,101691.78
2024-01-25T01:34:55.930Z,101682.06
2024-01-25T01:37:22.790Z,101686.47
2024-01-25T01:39:49.497Z,101697.75
2024-01-25T01:42:16.072Z,101694.19
2024-01-25T01:44:42.654Z,101696.69
2024-01-25T01:47:09.314Z,101697.59
2024-01-25T01:49:36.218Z,101699.16
2024-01-25T01:52:03.441Z,101694.91
2024-01-25T01:54:30.114Z,101688.91
2024-01-25T01:56:56.732Z,101687.25
2024-01-25T01:59:26.786Z,101699.25
2024-01-25T02:01:53.753Z,101694.19
2024-01-25T02:04:20.599Z,101700.38
2024-01-25T02:06:47.431Z,101699.25
2024-01-25T02:09:14.352Z,101695.72
2024-01-25T02:11:40.919Z,101716.63
2024-01-25T02:14:11.684Z,101706.88
2024-01-25T02:16:38.783Z,101707.94
2024-01-25T02:19:05.606Z,101696.66
2024-01-25T02:21:32.314Z,101698.25
2024-01-25T02:23:59.518Z,101693.69
2024-01-25T02:26:26.053Z,101697.09
2024-01-25T02:28:52.704Z,101710.06
2024-01-25T02:31:22.046Z,101704.06
2024-01-25T02:33:48.733Z,101700.56
2024-01-25T02:36:15.445Z,101708.41
2024-01-25T02:38:42.041Z,101714.41
2024-01-25T02:41:08.659Z,101712.63
2024-01-25T02:43:35.264Z,101712.47
2024-01-25T02:46:01.981Z,101720.97
2024-01-25T02:48:28.826Z,101714.66
2024-01-25T02:50:55.495Z,101713.75
2024-01-25T02:53:22.063Z,101724.13
2024-01-25T02:55:48.691Z,101717.66
2024-01-25T02:58:15.428Z,101733.03
2024-01-25T03:00:42.150Z,101736.63
2024-01-25T03:03:08.844Z,101717.69
2024-01-25T03:05:36.095Z,101731.50
2024-01-25T03:08:02.885Z,101733.84
2024-01-25T03:10:29.827Z,101729.63
2024-01-25T03:12:56.980Z,101726.91
2024-01-25T03:15:23.543Z,101716.41
2024-01-25T03:17:50.139Z,101722.53
2024-01-25T03:20:16.948Z,101715.56
2024-01-25T03:22:43.628Z,101719.84
2024-01-25T03:25:11.306Z,101715.56
2024-01-25T03:27:37.902Z,101718.84
2024-01-25T03:30:06.541Z,101713.41
2024-01-25T03:32:34.271Z,101725.53
2024-01-25T03:35:01.111Z,101722.81
2024-01-25T03:37:27.837Z,101725.50
2024-01-25T03:39:54.480Z,101739.06
2024-01-25T03:42:21.070Z,101730.16
2024-01-25T03:44:48.489Z,101721.97
2024-01-25T03:47:15.031Z,101740.34
2024-01-25T03:49:41.860Z,101732.25
2024-01-25T03:52:08.687Z,101739.72
2024-01-25T03:54:35.915Z,101744.81
2024-01-25T03:57:02.699Z,101730.78
2024-01-25T03:59:29.309Z,101741.03
2024-01-25T04:01:55.942Z,101739.81
2024-01-25T04:04:22.763Z,101748.16
2024-01-25T04:06:49.670Z,101748.00
2024-01-25T04:09:16.538Z,101743.75
2024-01-25T04:11:43.222Z,101749.81
2024-01-25T04:14:09.939Z,101743.53
2024-01-25T04:16:36.614Z,101753.72
2024-01-25T04:19:03.259Z,101760.66
2024-01-25T04:21:30.064Z,101769.63
2024-01-25T04:23:57.695Z,101757.25
2024-01-25T04:26:24.646Z,101758.94
2024-01-25T04:28:51.188Z,101768.13
2024-01-25T04:31:18.643Z,101764.59
2024-01-25T04:33:48.805Z,101771.75
2024-01-25T04:36:16.097Z,101769.00
2024-01-25T04:38:42.741Z,101780.91
2024-01-25T04:41:09.328Z,101784.13
2024-01-25T04:43:37.726Z,101786.03
2024-01-25T04:46:04.707Z,101797.28
2024-01-25T04:48:31.614Z,101802.44
2024-01-25T04:50:59.889Z,101800.53
2024-01-25T04:53:26.507Z,101807.56
2024-01-25T04:55:54.453Z,101803.16
2024-01-25T04:58:21.125Z,101804.00
2024-01-25T05:00:47.786Z,101798.09
2024-01-25T05:03:14.433Z,101798.09
2024-01-25T05:05:41.055Z,101794.25
2024-01-25T05:08:07.700Z,101803.78
2024-01-25T05:10:34.298Z,101806.38
2024-01-25T05:13:00.891Z,101813.06
2024-01-25T05:15:27.515Z,101808.97
2024-01-25T05:17:54.214Z,101814.88
2024-01-25T05:20:21.297Z,101820.81
2024-01-25T05:22:48.166Z,101822.72
2024-01-25T05:25:14.817Z,101824.34
2024-01-25T05:27:41.459Z,101824.13
2024-01-25T05:30:08.736Z,101826.66
2024-01-25T05:32:35.309Z,101837.59
2024-01-25T05:35:02.048Z,101834.03
2024-01-25T05:37:28.773Z,101844.31
2024-01-25T05:39:55.381Z,101846.38
2024-01-25T05:42:22.006Z,101846.41
2024-01-25T05:44:48.575Z,101847.28
2024-01-25T05:47:15.236Z,101841.16
2024-01-25T05:49:42.012Z,101847.03
2024-01-25T05:52:09.091Z,101844.53
2024-01-25T05:54:35.956Z,101842.72
2024-01-25T05:57:02.725Z,101844.72
2024-01-25T05:59:29.288Z,101846.09
2024-01-25T06:01:56.000Z,101839.94
2024-01-25T06:04:22.876Z,101830.56
2024-01-25T06:06:49.745Z,101836.88
2024-01-25T06:09:18.856Z,101839.13
2024-01-25T06:11:46.554Z,101839.56
2024-01-25T06:14:13.147Z,101829.50
2024-01-25T06:16:39.770Z,101829.38
2024-01-25T06:19:06.466Z,101836.38
2024-01-25T06:21:35.405Z,101834.78
2024-01-25T06:24:05.752Z,101821.19
2024-01-25T06:26:32.393Z,101820.81
2024-01-25T06:28:59.040Z,101826.84
2024-01-25T06:31:25.869Z,101826.22
2024-01-25T06:33:54.623Z,101832.63
2024-01-25T06:36:21.417Z,101828.72
2024-01-25T06:38:47.995Z,101833.78
2024-01-25T06:41:14.878Z,101841.59
2024-01-25T06:43:41.553Z,101836.03
2024-01-25T06:46:08.478Z,101834.19
2024-01-25T06:48:35.467Z,101824.44
2024-01-25T06:51:02.440Z,101816.53
2024-01-25T06:53:29.520Z,101821.75
2024-01-25T06:55:56.225Z,101821.91
2024-01-25T06:58:23.203Z,101827.78
2024-01-25T07:00:50.420Z,101832.25
2024-01-25T07:03:17.545Z,101827.75
2024-01-25T07:05:44.534Z,101821.13
2024-01-25T07:08:14.616Z,101840.78
2024-01-25T07:10:41.688Z,101842.25
2024-01-25T07:13:08.387Z,101844.81
2024-01-25T07:15:35.438Z,101831.06
2024-01-25T07:18:02.284Z,101832.84
2024-01-25T07:20:29.225Z,101832.00
2024-01-25T07:22:55.961Z,101851.69
2024-01-25T07:25:22.590Z,101853.34
2024-01-25T07:27:50.794Z,101866.28
2024-01-25T07:30:17.805Z,101872.38
2024-01-25T07:32:44.720Z,101872.34
2024-01-25T07:35:11.509Z,101881.06
2024-01-25T07:37:38.123Z,101880.13
2024-01-25T07:40:05.231Z,101879.09
2024-01-25T07:42:31.999Z,101875.56
2024-01-25T07:44:58.689Z,101872.69
2024-01-25T07:47:25.869Z,101870.16
2024-01-25T07:49:52.692Z,101868.63
2024-01-25T07:52:19.495Z,101868.84
2024-01-25T07:54:46.230Z,101867.72
2024-01-25T07:57:14.325Z,101872.09
2024-01-25T07:59:40.966Z,101862.69
2024-01-25T08:02:07.884Z,101865.19
2024-01-25T08:04:34.950Z,101864.97
2024-01-25T08:07:01.813Z,101856.88
2024-01-25T08:09:28.589Z,101862.75
2024-01-25T08:11:55.355Z,101874.25
2024-01-25T08:14:22.081Z,101873.94
2024-01-25T08:16:48.763Z,101877.63
2024-01-25T08:19:15.615Z,101877.72
2024-01-25T08:21:42.387Z,101874.41
2024-01-25T08:24:09.679Z,101871.97
2024-01-25T08:26:36.338Z,101864.50
2024-01-25T08:29:03.091Z,101861.00
2024-01-25T08:31:29.817Z,101864.34
2024-01-25T08:33:56.704Z,101866.56
2024-01-25T08:36:24.024Z,101862.69
2024-01-25T08:38:50.741Z,101874.97
2024-01-25T08:41:17.661Z,101877.69
2024-01-25T08:43:44.514Z,101881.94
2024-01-25T08:46:13.882Z,101878.38
2024-01-25T08:48:40.730Z,101888.13
2024-01-25T08:51:07.513Z,101885.13
2024-01-25T08:53:34.233Z,101893.72
2024-01-25T08:56:02.974Z,101888.00
2024-01-25T08:58:31.117Z,101893.41
2024-01-25T09:00:57.932Z,101890.94
2024-01-25T09:03:24.711Z,101876.53
2024-01-25T09:05:51.537Z,101891.25
2024-01-25T09:08:18.683Z,101898.75
2024-01-25T09:10:45.790Z,101906.44
2024-01-25T09:13:12.649Z,101906.44
2024-01-25T09:15:39.364Z,101912.25
2024-01-25T09:18:06.176Z,101909.16
2024-01-25T09:20:33.060Z,101905.31
2024-01-25T09:22:59.870Z,101897.63
2024-01-25T09:25:26.640Z,101898.78
2024-01-25T09:27:53.359Z,101895.25
2024-01-25T09:30:21.838Z,101891.03
2024-01-25T09:32:49.032Z,101885.75
2024-01-25T09:35:16.253Z,101889.50
2024-01-25T09:37:43.040Z,101895.56
2024-01-25T09:40:11.408Z,101901.56
2024-01-25T09:42:38.423Z,101909.28
2024-01-25T09:45:06.298Z,101904.22
2024-01-25T09:47:33.171Z,101893.88
2024-01-25T09:50:00.581Z,101894.84
2024-01-25T09:52:27.705Z,101893.97
2024-01-25T09:54:55.290Z,101900.25
2024-01-25T09:57:23.182Z,101902.06
2024-01-25T09:59:51.746Z,101900.44
2024-01-25T10:02:18.640Z,101896.28
2024-01-25T10:04:49.453Z,101894.47
2024-01-25T10:07:16.087Z,101890.34
2024-01-25T10:09:43.724Z,101893.94
2024-01-25T10:12:17.930Z,101890.69
2024-01-25T10:14:45.764Z,101898.63
2024-01-25T10:17:12.580Z,101893.50
2024-01-25T10:19:40.334Z,101904.91
2024-01-25T10:22:09.071Z,101904.41
2024-01-25T10:24:36.081Z,101912.38
2024-01-25T10:27:03.121Z,101915.06
2024-01-25T10:29:30.254Z,101913.53
2024-01-25T10:31:56.967Z,101905.78
2024-01-25T10:34:24.236Z,101912.78
2024-01-25T10:36:51.781Z,101910.19
2024-01-25T10:39:20.033Z,101905.34
2024-01-25T10:41:51.476Z,101911.56
2024-01-25T10:44:20.455Z,101916.75
2024-01-25T10:46:48.523Z,101904.63
2024-01-25T10:49:15.278Z,101899.66
2024-01-25T10:51:42.433Z,101888.91
2024-01-25T10:54:09.474Z,101881.03
2024-01-25T10:56:36.472Z,101862.19
2024-01-25T10:59:03.406Z,101870.13
2024-01-25T11:01:30.343Z,101881.31
2024-01-25T11:03:59.882Z,101871.78
2024-01-25T11:09:10.787Z,101877.38
2024-01-25T11:11:38.293Z,101883.47
2024-01-25T11:14:04.770Z,101881.69
2024-01-25T11:16:33.183Z,101882.47
2024-01-25T11:19:07.321Z,101879.22
2024-01-25T11:21:40.888Z,101880.22
2024-01-25T11:24:12.911Z,101875.00
2024-01-25T11:26:39.743Z,101880.41
2024-01-25T11:29:07.070Z,101871.69
2024-01-25T11:31:34.834Z,101863.03
2024-01-25T11:34:01.807Z,101859.25
2024-01-25T11:36:29.667Z,101860.25
2024-01-25T11:39:05.705Z,101857.16
2024-01-25T11:41:52.629Z,101843.38
2024-01-25T11:44:19.709Z,101847.47
2024-01-25T11:46:46.749Z,101839.81
2024-01-25T11:49:26.153Z,101843.41
2024-01-25T11:54:43.949Z,101828.69
2024-01-25T11:57:10.650Z,101826.00
2024-01-25T11:59:40.038Z,101814.59
2024-01-25T12:02:06.662Z,101812.78
2024-01-25T12:04:37.613Z,101798.97
2024-01-25T12:07:04.610Z,101801.72
2024-01-25T12:09:31.828Z,101815.59
2024-01-25T12:11:58.793Z,101806.13
2024-01-25T12:14:25.669Z,101800.09
2024-01-25T12:16:52.269Z,101802.72
2024-01-25T12:19:19.489Z,101795.75
2024-01-25T12:21:46.572Z,101779.13
2024-01-25T12:24:13.147Z,101773.84
2024-01-25T12:26:39.724Z,101773.81
2024-01-25T12:29:06.522Z,101761.44
2024-01-25T12:31:33.165Z,101747.53
2024-01-25T12:34:00.454Z,101743.97
2024-01-25T12:38:56.974Z,101743.03
2024-01-25T12:41:32.616Z,101742.22
2024-01-25T12:44:04.322Z,101756.19
2024-01-25T12:49:49.815Z,101753.56
2024-01-25T12:52:16.692Z,101749.06
2024-01-25T12:55:22.833Z,101745.63
2024-01-25T13:06:35.326Z,101722.88
2024-01-25T13:09:05.904Z,101715.91
2024-01-25T13:14:15.602Z,101721.13
2024-01-25T13:28:11.918Z,101697.53
2024-01-25T13:33:22.294Z,101705.47
2024-01-25T13:35:58.826Z,101689.72
2024-01-25T13:50:53.011Z,101687.06
2024-01-25T13:53:19.753Z,101678.31
2024-01-25T13:55:46.405Z,101678.28
2024-01-25T14:00:54.074Z,101675.66
2024-01-25T14:03:30.591Z,101672.97
2024-01-25T14:05:58.604Z,101672.13
2024-01-25T14:08:27.560Z,101671.28
2024-01-25T14:11:00.236Z,101686.16
2024-01-25T14:13:27.277Z,101683.53
2024-01-25T14:15:54.162Z,101682.63
2024-01-25T14:18:25.298Z,101678.25
2024-01-25T14:20:53.058Z,101673.78
2024-01-25T14:23:19.712Z,101685.19
2024-01-25T14:25:46.819Z,101685.19
2024-01-25T14:28:13.537Z,101677.31
2024-01-25T14:30:40.797Z,101675.53
2024-01-25T14:33:07.885Z,101685.13
2024-01-25T14:35:34.781Z,101685.09
2024-01-25T14:38:01.424Z,101671.09
2024-01-25T14:40:43.493Z,101672.81
2024-01-25T14:43:14.929Z,101672.81
2024-01-25T14:45:41.562Z,101670.16
2024-01-25T14:48:08.226Z,101662.31
2024-01-25T14:50:34.982Z,101661.38
2024-01-25T14:53:01.597Z,101664.84
2024-01-25T14:55:28.353Z,101664.84
2024-01-25T14:57:55.054Z,101663.00
2024-01-25T15:00:21.768Z,101669.94
2024-01-25T15:02:48.416Z,101670.84
2024-01-25T15:05:15.277Z,101664.69
2024-01-25T15:07:42.719Z,101669.94
2024-01-25T15:10:09.847Z,101673.44
2024-01-25T15:12:36.517Z,101657.66
2024-01-25T15:15:03.145Z,101658.50
2024-01-25T15:17:29.855Z,101651.50
2024-01-25T15:19:56.655Z,101654.06
2024-01-25T15:22:26.940Z,101657.59
2024-01-25T15:24:53.870Z,101656.66
2024-01-25T15:27:20.518Z,101647.03
2024-01-25T15:29:47.244Z,101635.56
2024-01-25T15:32:13.883Z,101631.19
2024-01-25T15:34:41.814Z,101627.63
2024-01-25T15:37:08.541Z,101629.44
2024-01-25T15:39:35.096Z,101625.81
2024-01-25T15:42:01.835Z,101621.53
2024-01-25T15:44:28.583Z,101619.66
2024-01-25T15:46:55.240Z,101626.56
2024-01-25T15:49:24.347Z,101618.78
2024-01-25T15:51:51.075Z,101616.16
2024-01-25T15:54:18.972Z,101617.00
2024-01-25T15:56:45.653Z,101624.84
2024-01-25T15:59:12.518Z,101620.38
2024-01-25T16:01:39.281Z,101616.00
2024-01-25T16:04:06.045Z,101624.75
2024-01-25T16:06:33.776Z,101625.50
2024-01-25T16:09:03.778Z,101615.94
2024-01-25T16:11:30.425Z,101623.84
2024-01-25T16:13:57.069Z,101621.19
2024-01-25T16:16:23.825Z,101619.53
2024-01-25T16:18:50.574Z,101615.09
2024-01-25T16:21:17.365Z,101615.06
2024-01-25T16:23:43.968Z,101618.53
2024-01-25T16:26:10.629Z,101616.78
2024-01-25T16:28:37.436Z,101609.72
2024-01-25T16:31:04.276Z,101620.19
2024-01-25T16:33:31.161Z,101614.00
2024-01-25T16:35:58.920Z,101610.47
2024-01-25T16:38:25.733Z,101618.31
2024-01-25T16:40:52.501Z,101629.59
2024-01-25T16:43:19.160Z,101622.53
2024-01-25T16:45:45.871Z,101619.94
2024-01-25T16:48:13.688Z,101620.78
2024-01-25T16:50:46.452Z,101611.25
2024-01-25T16:53:17.705Z,101612.13
2024-01-25T16:55:44.332Z,101614.72
2024-01-25T16:58:10.942Z,101616.28
2024-01-25T17:00:37.638Z,101623.28
2024-01-25T17:03:04.445Z,101625.00
2024-01-25T17:05:31.435Z,101621.44
2024-01-25T17:07:58.185Z,101615.25
2024-01-25T17:10:25.001Z,101622.13
2024-01-25T17:12:52.086Z,101626.41
2024-01-25T17:15:19.895Z,101633.41
2024-01-25T17:17:46.688Z,101632.44
2024-01-25T17:20:13.513Z,101627.16
2024-01-25T17:22:40.234Z,101620.94
2024-01-25T17:25:07.668Z,101629.59
2024-01-25T17:27:34.624Z,101623.44
2024-01-25T17:30:01.458Z,101636.53
2024-01-25T17:32:28.550Z,101625.09
2024-01-25T17:34:58.268Z,101626.84
2024-01-25T17:37:24.925Z,101622.47
2024-01-25T17:39:51.679Z,101618.00
2024-01-25T17:42:18.804Z,101621.56
2024-01-25T17:44:45.701Z,101617.19
2024-01-25T17:47:12.837Z,101611.84
2024-01-25T17:49:39.696Z,101614.47
2024-01-25T17:52:07.049Z,101613.56
2024-01-25T17:54:34.253Z,101617.91
2024-01-25T17:57:02.328Z,101615.25
2024-01-25T17:59:28.889Z,101613.47
2024-01-25T18:01:55.638Z,101615.22
2024-01-25T18:04:22.332Z,101612.53
2024-01-25T18:06:48.983Z,101608.22
2024-01-25T18:09:15.797Z,101605.56
2024-01-25T18:11:42.467Z,101603.78
2024-01-25T18:14:09.094Z,101597.69
2024-01-25T18:16:38.182Z,101597.63
2024-01-25T18:19:04.835Z,101598.50
2024-01-25T18:21:32.115Z,101604.53
2024-01-25T18:23:58.880Z,101596.69
2024-01-25T18:26:26.300Z,101594.88
2024-01-25T18:28:53.032Z,101606.19
2024-01-25T18:31:20.339Z,101598.34
2024-01-25T18:33:47.234Z,101607.06
2024-01-25T18:36:14.747Z,101597.50
2024-01-25T18:38:41.452Z,101589.59
2024-01-25T18:41:11.053Z,101582.56
2024-01-25T18:43:38.386Z,101583.38
2024-01-25T18:46:07.171Z,101585.19
2024-01-25T18:48:34.473Z,101593.84
2024-01-25T18:51:03.257Z,101597.38
2024-01-25T18:53:30.782Z,101607.81
2024-01-25T18:55:57.566Z,101609.56
2024-01-25T18:58:25.604Z,101607.94
2024-01-25T19:00:52.450Z,101600.91
2024-01-25T19:03:19.241Z,101604.41
2024-01-25T19:05:47.791Z,101611.31
2024-01-25T19:08:14.578Z,101606.09
2024-01-25T19:10:41.190Z,101602.63
2024-01-25T19:13:07.759Z,101597.38
2024-01-25T19:15:34.720Z,101606.13
2024-01-25T19:18:02.018Z,101593.94
2024-01-25T19:20:28.861Z,101590.47
2024-01-25T19:22:55.482Z,101584.38
2024-01-25T19:25:22.331Z,101586.13
2024-01-25T19:27:49.201Z,101585.19
2024-01-25T19:30:17.033Z,101571.28
2024-01-25T19:32:44.497Z,101582.50
2024-01-25T19:35:11.313Z,101580.78
2024-01-25T19:37:37.865Z,101583.28
2024-01-25T19:40:04.722Z,101588.38
2024-01-25T19:42:31.426Z,101588.38
2024-01-25T19:44:58.020Z,101589.22
2024-01-25T19:47:24.674Z,101599.66
2024-01-25T19:49:52.058Z,101590.13
2024-01-25T19:52:18.705Z,101597.00
2024-01-25T19:54:45.481Z,101599.63
2024-01-25T19:57:12.692Z,101600.47
2024-01-25T19:59:39.939Z,101598.75
2024-01-25T20:02:07.496Z,101601.31
2024-01-25T20:04:34.809Z,101589.97
2024-01-25T20:07:01.921Z,101592.53
2024-01-25T20:09:29.732Z,101598.66
2024-01-25T20:11:57.134Z,101595.16
2024-01-25T20:14:24.318Z,101593.41
2024-01-25T20:16:51.984Z,101594.25
2024-01-25T20:19:18.920Z,101581.19
2024-01-25T20:21:45.785Z,101584.66
2024-01-25T20:24:12.762Z,101589.81
2024-01-25T20:26:40.343Z,101592.38
2024-01-25T20:29:07.126Z,101588.13
2024-01-25T20:31:33.745Z,101600.25
2024-01-25T20:34:00.570Z,101597.72
2024-01-25T20:36:27.342Z,101597.69
2024-01-25T20:38:54.048Z,101598.56
2024-01-25T20:41:21.947Z,101595.91
2024-01-25T20:43:48.578Z,101588.03
2024-01-25T20:46:15.272Z,101595.81
2024-01-25T20:48:42.987Z,101591.44
2024-01-25T20:51:09.657Z,101591.44
2024-01-25T20:53:36.271Z,101590.63
2024-01-25T20:56:03.604Z,101581.03
2024-01-25T20:58:30.325Z,101586.22
2024-01-25T21:00:57.274Z,101581.09
2024-01-25T21:03:24.157Z,101582.84
2024-01-25T21:05:50.953Z,101578.47
2024-01-25T21:08:17.681Z,101574.97
2024-01-25T21:10:45.738Z,101572.38
2024-01-25T21:13:12.725Z,101574.94
2024-01-25T21:15:39.367Z,101565.41
2024-01-25T21:18:06.591Z,101556.75
2024-01-25T21:20:33.881Z,101561.91
2024-01-25T21:23:00.746Z,101567.22
2024-01-25T21:25:27.387Z,101575.03
2024-01-25T21:27:54.035Z,101577.59
2024-01-25T21:30:20.746Z,101563.56
2024-01-25T21:32:47.513Z,101565.31
2024-01-25T21:35:14.472Z,101566.09
2024-01-25T21:37:41.154Z,101571.31
2024-01-25T21:40:07.983Z,101570.47
2024-01-25T21:42:38.425Z,101572.19
2024-01-25T21:45:10.519Z,101568.75
2024-01-25T21:47:39.621Z,101560.88
2024-01-25T21:50:09.865Z,101562.63
2024-01-25T21:52:36.994Z,101556.66
2024-01-25T21:55:07.935Z,101551.34
2024-01-25T21:57:34.918Z,101563.53
2024-01-25T22:00:01.631Z,101558.25
2024-01-25T22:02:28.394Z,101564.34
2024-01-25T22:04:55.033Z,101558.25
2024-01-25T22:07:21.696Z,101559.19
2024-01-25T22:09:48.352Z,101561.88
2024-01-25T22:12:14.980Z,101555.75
2024-01-25T22:14:41.753Z,101562.69
2024-01-25T22:17:08.411Z,101560.06
2024-01-25T22:19:35.301Z,101568.72
2024-01-25T22:22:01.954Z,101575.69
2024-01-25T22:24:28.655Z,101574.84
2024-01-25T22:26:55.293Z,101579.22
2024-01-25T22:29:21.884Z,101573.91
2024-01-25T22:31:48.458Z,101575.72
2024-01-25T22:34:15.437Z,101577.41
2024-01-25T22:36:42.736Z,101580.03
2024-01-25T22:39:09.362Z,101574.84
2024-01-25T22:41:36.036Z,101558.25
2024-01-25T22:44:02.630Z,101554.78
2024-01-25T22:46:29.346Z,101552.19
2024-01-25T22:48:57.194Z,101557.34
2024-01-25T22:51:23.982Z,101556.47
2024-01-25T22:53:50.712Z,101553.06
2024-01-25T22:56:17.525Z,101564.38
2024-01-25T22:58:44.184Z,101569.63
2024-01-25T23:01:11.345Z,101560.94
2024-01-25T23:03:38.263Z,101565.38
2024-01-25T23:06:05.087Z,101575.91
2024-01-25T23:08:31.693Z,101575.03
2024-01-25T23:10:58.738Z,101581.13
2024-01-25T23:13:25.731Z,101575.97
2024-01-25T23:15:52.647Z,101572.44
2024-01-25T23:18:19.637Z,101565.41
2024-01-25T23:20:46.384Z,101560.19
2024-01-25T23:23:14.693Z,101565.38
2024-01-25T23:25:41.895Z,101566.22
2024-01-25T23:28:08.536Z,101565.31
2024-01-25T23:30:35.312Z,101558.28
2024-01-25T23:33:02.130Z,101558.25
2024-01-25T23:35:29.512Z,101558.25
2024-01-25T23:37:56.224Z,101557.34
2024-01-25T23:40:23.066Z,101558.28
2024-01-25T23:42:50.007Z,101559.19
2024-01-25T23:45:19.167Z,101558.28
2024-01-25T23:47:45.954Z,101570.50
2024-01-25T23:50:13.274Z,101558.28
2024-01-25T23:52:40.136Z,101559.19
2024-01-25T23:55:08.156Z,101555.72
2024-01-25T23:57:35.589Z,101537.50
